»·PEaware :: N357G KSEE-KRIV

N357G :: KSEE-KRIV

FLIGHT INFORMATION

Flight Status: Arrived
Operator: Privately registered:
United States
More flights under this callsign
Pilot: Graham S. (10862)
Aircraft: CIRRUS SR-22
(SR22)
More flights by this aircraft type
Origin: KSEE Gillespie
United States
Destination: KRIV March ARB
United States
More flights between these airports :: More routes between these airports
Route: +OCN V23 DANAH V363 POXKU V8 PDZ
File this flight plan on PilotEdge
Remarks: TEC route SANP19
Altitude:
(Current/Filed)
6,000ft
Speed:
(Current/Filed)
170kts
Departed: 11-Oct-18 12:34 PM
Arrived: 11-Oct-18 01:26 PM
Distance/Time
Traveled:
65nm/0:51
Distance/Time
To Go:
Arrived

Flight Plot

Page will automatically refresh every two minutes.


Map Options




Map Legend


Flown Route
Filed Route
Departure Airport
Arrival Airport
Navaid (VOR, NDB)
Fix

Horizontal Profiles

Position Reports

Time Latitude Longitude Heading Altitude Ground
Speed
11-Oct-18 12:14 32.820382 -116.973479 270 390ft 0kts
11-Oct-18 12:15 32.820382 -116.973578 269 390ft 0kts
11-Oct-18 12:16 32.820382 -116.973584 269 390ft 0kts
11-Oct-18 12:17 32.820382 -116.973585 269 390ft 0kts
11-Oct-18 12:18 32.820382 -116.973585 269 390ft 0kts
11-Oct-18 12:19 32.820382 -116.973586 270 390ft 0kts
11-Oct-18 12:20 32.820382 -116.973587 270 390ft 0kts
11-Oct-18 12:21 32.820382 -116.973588 270 390ft 0kts
11-Oct-18 12:22 32.820382 -116.973589 270 390ft 0kts
11-Oct-18 12:23 32.820382 -116.973590 270 390ft 0kts
11-Oct-18 12:24 32.820382 -116.973591 270 390ft 0kts
11-Oct-18 12:25 32.820382 -116.973591 270 390ft 0kts
11-Oct-18 12:26 32.820382 -116.973592 270 390ft 0kts
11-Oct-18 12:27 32.820382 -116.973593 270 390ft 0kts
11-Oct-18 12:28 32.820382 -116.973594 270 390ft 0kts
11-Oct-18 12:29 32.821775 -116.973554 29 390ft 9kts
11-Oct-18 12:30 32.824745 -116.972996 359 390ft 18kts
11-Oct-18 12:31 32.825897 -116.970799 101 390ft 12kts
11-Oct-18 12:32 32.825017 -116.966035 100 390ft 17kts
11-Oct-18 12:33 32.825382 -116.964534 9 390ft 0kts
11-Oct-18 12:34 32.825849 -116.964433 340 390ft 0kts
11-Oct-18 12:35 32.826546 -116.964987 280 390ft 19kts
11-Oct-18 12:36 32.832395 -116.987611 329 774ft 90kts
11-Oct-18 12:37 32.862539 -116.998944 339 1480ft 105kts
11-Oct-18 12:38 32.890020 -117.004663 351 2329ft 105kts
11-Oct-18 12:39 32.921060 -117.009523 351 2968ft 117kts
11-Oct-18 12:40 32.953625 -117.014434 351 3691ft 115kts
11-Oct-18 12:41 32.986636 -117.019569 351 4315ft 124kts
11-Oct-18 12:42 33.021668 -117.025412 351 4926ft 129kts
11-Oct-18 12:43 33.042849 -117.057580 295 5536ft 129kts
11-Oct-18 12:44 33.059134 -117.095986 295 6134ft 130kts
11-Oct-18 12:45 33.074803 -117.134779 292 6717ft 129kts
11-Oct-18 12:46 33.088352 -117.174283 289 7260ft 128kts
11-Oct-18 12:47 33.099837 -117.215115 285 7589ft 143kts
11-Oct-18 12:48 33.114710 -117.267333 300 7140ft 181kts
11-Oct-18 12:49 33.148752 -117.311997 316 6679ft 183kts
11-Oct-18 12:50 33.185375 -117.353292 315 5995ft 173kts
11-Oct-18 12:51 33.218706 -117.392032 314 5980ft 164kts
11-Oct-18 12:52 33.251303 -117.430036 315 5981ft 163kts
11-Oct-18 12:53 33.284007 -117.468097 315 5982ft 163kts
11-Oct-18 12:54 33.316700 -117.506146 314 5991ft 164kts
11-Oct-18 12:55 33.349452 -117.544300 314 5994ft 164kts
11-Oct-18 12:56 33.383242 -117.583682 314 5996ft 172kts
11-Oct-18 12:57 33.417964 -117.623974 321 5992ft 175kts
11-Oct-18 12:58 33.464672 -117.640035 345 6000ft 176kts
11-Oct-18 12:59 33.511806 -117.656114 343 6002ft 176kts
11-Oct-18 13:00 33.558842 -117.673364 342 6001ft 176kts
11-Oct-18 13:01 33.605758 -117.690722 342 6001ft 177kts
11-Oct-18 13:02 33.653079 -117.707891 343 6001ft 177kts
11-Oct-18 13:03 33.698892 -117.724631 343 6001ft 177kts
11-Oct-18 13:04 33.746108 -117.742141 342 6000ft 177kts
11-Oct-18 13:05 33.793387 -117.759785 342 6004ft 177kts
11-Oct-18 13:06 33.841064 -117.774780 10 6009ft 181kts
11-Oct-18 13:07 33.867520 -117.727906 75 6012ft 173kts
11-Oct-18 13:08 33.881425 -117.673398 75 6009ft 169kts
11-Oct-18 13:09 33.895350 -117.619249 75 5991ft 169kts
11-Oct-18 13:10 33.909253 -117.565298 75 5990ft 168kts
11-Oct-18 13:11 33.916023 -117.510824 100 6002ft 165kts
11-Oct-18 13:12 33.901300 -117.460710 121 5091ft 162kts
11-Oct-18 13:13 33.873971 -117.405799 121 4001ft 167kts
11-Oct-18 13:14 33.854130 -117.366410 121 3986ft 163kts
11-Oct-18 13:15 33.828831 -117.321556 138 4001ft 161kts
11-Oct-18 13:16 33.793688 -117.287683 142 3995ft 161kts
11-Oct-18 13:17 33.758658 -117.254204 141 3996ft 160kts
11-Oct-18 13:18 33.723821 -117.220468 141 3974ft 160kts
11-Oct-18 13:19 33.689153 -117.186990 141 3975ft 160kts
11-Oct-18 13:20 33.680228 -117.142342 56 3979ft 161kts
11-Oct-18 13:21 33.720758 -117.145103 328 3977ft 161kts
11-Oct-18 13:22 33.756878 -117.171663 328 3943ft 125kts
11-Oct-18 13:23 33.782167 -117.189383 328 3493ft 92kts
11-Oct-18 13:24 33.803572 -117.204610 327 2929ft 86kts
11-Oct-18 13:25 33.823213 -117.218632 325 2472ft 79kts
11-Oct-18 13:26 33.841500 -117.232182 329 2165ft 80kts
11-Oct-18 13:27 33.860805 -117.245335 326 1695ft 80kts
11-Oct-18 13:28 33.873668 -117.253217 24 1538ft 12kts
11-Oct-18 13:29 33.873891 -117.253100 23 1538ft 0kts
11-Oct-18 13:30 33.877797 -117.250898 22 1538ft 24kts
11-Oct-18 13:31 33.882380 -117.248100 23 1538ft 19kts
11-Oct-18 13:32 33.885438 -117.251505 317 1538ft 16kts
11-Oct-18 13:33 33.888396 -117.249903 344 1538ft 20kts

Navigation Log

Ident Type
1. KSEE Airport
2. OCN Navaid
3. KELPS Fix
4. DANAH Fix
5. ELB Navaid
6. JOGIT Fix
7. POXKU Fix
8. EBITE Fix
9. PDZ Navaid
10. KRIV Airport